sensor_id;sensor_type;location;lat;lon;timestamp;P1;durP1;ratioP1;P2;durP2;ratioP2
10381;SDS011;11635;53.636;10.120;2022-10-28T00:01:10;6.13;;;3.95;;
10381;SDS011;11635;53.636;10.120;2022-10-28T00:03:38;8.93;;;4.35;;
10381;SDS011;11635;53.636;10.120;2022-10-28T00:06:05;7.72;;;4.20;;
10381;SDS011;11635;53.636;10.120;2022-10-28T00:08:31;11.70;;;4.55;;
10381;SDS011;11635;53.636;10.120;2022-10-28T00:11:02;7.13;;;4.25;;
10381;SDS011;11635;53.636;10.120;2022-10-28T00:13:29;6.60;;;3.95;;
10381;SDS011;11635;53.636;10.120;2022-10-28T00:16:01;5.38;;;3.63;;
10381;SDS011;11635;53.636;10.120;2022-10-28T00:18:28;7.35;;;4.28;;
10381;SDS011;11635;53.636;10.120;2022-10-28T00:20:57;7.72;;;4.22;;
10381;SDS011;11635;53.636;10.120;2022-10-28T00:23:24;7.47;;;4.38;;
10381;SDS011;11635;53.636;10.120;2022-10-28T00:25:50;8.00;;;3.80;;
10381;SDS011;11635;53.636;10.120;2022-10-28T00:28:16;7.95;;;4.55;;
10381;SDS011;11635;53.636;10.120;2022-10-28T00:30:44;7.07;;;4.25;;
10381;SDS011;11635;53.636;10.120;2022-10-28T00:33:10;5.15;;;3.88;;
10381;SDS011;11635;53.636;10.120;2022-10-28T00:35:37;11.70;;;4.30;;
10381;SDS011;11635;53.636;10.120;2022-10-28T00:38:03;8.52;;;4.70;;
10381;SDS011;11635;53.636;10.120;2022-10-28T00:40:32;7.47;;;4.25;;
10381;SDS011;11635;53.636;10.120;2022-10-28T00:42:58;9.23;;;4.30;;
10381;SDS011;11635;53.636;10.120;2022-10-28T00:45:25;8.77;;;4.45;;
10381;SDS011;11635;53.636;10.120;2022-10-28T00:47:53;7.22;;;4.22;;
10381;SDS011;11635;53.636;10.120;2022-10-28T00:50:24;5.93;;;3.97;;
10381;SDS011;11635;53.636;10.120;2022-10-28T00:52:52;5.72;;;4.05;;
10381;SDS011;11635;53.636;10.120;2022-10-28T00:55:20;7.50;;;4.15;;
10381;SDS011;11635;53.636;10.120;2022-10-28T00:57:48;5.88;;;3.95;;
10381;SDS011;11635;53.636;10.120;2022-10-28T01:00:15;6.85;;;4.22;;
10381;SDS011;11635;53.636;10.120;2022-10-28T01:02:43;6.13;;;4.13;;
10381;SDS011;11635;53.636;10.120;2022-10-28T01:05:12;6.88;;;4.45;;
10381;SDS011;11635;53.636;10.120;2022-10-28T01:07:39;6.95;;;3.85;;
10381;SDS011;11635;53.636;10.120;2022-10-28T01:10:06;10.68;;;4.40;;
10381;SDS011;11635;53.636;10.120;2022-10-28T01:12:34;10.95;;;4.32;;
10381;SDS011;11635;53.636;10.120;2022-10-28T01:15:04;6.63;;;4.35;;
10381;SDS011;11635;53.636;10.120;2022-10-28T01:17:39;9.60;;;4.45;;
10381;SDS011;11635;53.636;10.120;2022-10-28T01:20:16;9.45;;;4.78;;
10381;SDS011;11635;53.636;10.120;2022-10-28T01:22:48;6.80;;;4.80;;
10381;SDS011;11635;53.636;10.120;2022-10-28T01:25:29;6.50;;;3.70;;
10381;SDS011;11635;53.636;10.120;2022-10-28T01:28:06;5.78;;;4.28;;
10381;SDS011;11635;53.636;10.120;2022-10-28T01:30:37;7.75;;;4.40;;
10381;SDS011;11635;53.636;10.120;2022-10-28T01:33:08;8.20;;;4.10;;
10381;SDS011;11635;53.636;10.120;2022-10-28T01:35:40;6.10;;;4.25;;
10381;SDS011;11635;53.636;10.120;2022-10-28T01:38:21;10.55;;;4.15;;
10381;SDS011;11635;53.636;10.120;2022-10-28T01:40:54;8.25;;;3.95;;
10381;SDS011;11635;53.636;10.120;2022-10-28T01:43:25;5.53;;;3.80;;
10381;SDS011;11635;53.636;10.120;2022-10-28T01:45:55;7.28;;;4.18;;
10381;SDS011;11635;53.636;10.120;2022-10-28T01:48:26;8.38;;;4.38;;
10381;SDS011;11635;53.636;10.120;2022-10-28T01:50:56;9.27;;;4.72;;
10381;SDS011;11635;53.636;10.120;2022-10-28T01:53:26;8.60;;;4.45;;
10381;SDS011;11635;53.636;10.120;2022-10-28T01:55:54;6.50;;;3.80;;
10381;SDS011;11635;53.636;10.120;2022-10-28T01:58:22;6.28;;;4.05;;
10381;SDS011;11635;53.636;10.120;2022-10-28T02:00:50;5.13;;;3.75;;
10381;SDS011;11635;53.636;10.120;2022-10-28T02:03:17;6.65;;;4.38;;
10381;SDS011;11635;53.636;10.120;2022-10-28T02:05:45;9.20;;;4.68;;
10381;SDS011;11635;53.636;10.120;2022-10-28T02:08:17;6.40;;;4.15;;
10381;SDS011;11635;53.636;10.120;2022-10-28T02:10:49;7.35;;;4.43;;
10381;SDS011;11635;53.636;10.120;2022-10-28T02:13:17;6.50;;;4.05;;
10381;SDS011;11635;53.636;10.120;2022-10-28T02:15:45;8.45;;;4.45;;
10381;SDS011;11635;53.636;10.120;2022-10-28T02:18:15;6.65;;;4.57;;
10381;SDS011;11635;53.636;10.120;2022-10-28T02:20:48;5.32;;;4.20;;
10381;SDS011;11635;53.636;10.120;2022-10-28T02:23:18;7.60;;;4.53;;
10381;SDS011;11635;53.636;10.120;2022-10-28T02:25:47;7.88;;;4.80;;
10381;SDS011;11635;53.636;10.120;2022-10-28T02:28:17;7.20;;;3.97;;
10381;SDS011;11635;53.636;10.120;2022-10-28T02:30:47;7.65;;;4.38;;
10381;SDS011;11635;53.636;10.120;2022-10-28T02:33:17;10.18;;;4.28;;
10381;SDS011;11635;53.636;10.120;2022-10-28T02:35:45;5.22;;;4.30;;
10381;SDS011;11635;53.636;10.120;2022-10-28T02:38:16;9.40;;;4.50;;
10381;SDS011;11635;53.636;10.120;2022-10-28T02:40:44;6.85;;;4.60;;
10381;SDS011;11635;53.636;10.120;2022-10-28T02:43:12;6.90;;;4.68;;
10381;SDS011;11635;53.636;10.120;2022-10-28T02:45:40;7.40;;;4.47;;
10381;SDS011;11635;53.636;10.120;2022-10-28T02:48:08;7.22;;;3.97;;
10381;SDS011;11635;53.636;10.120;2022-10-28T02:50:37;5.05;;;3.92;;
10381;SDS011;11635;53.636;10.120;2022-10-28T02:53:05;7.95;;;4.45;;
10381;SDS011;11635;53.636;10.120;2022-10-28T02:55:36;7.35;;;4.47;;
10381;SDS011;11635;53.636;10.120;2022-10-28T02:58:05;5.72;;;4.05;;
10381;SDS011;11635;53.636;10.120;2022-10-28T03:00:31;7.10;;;4.20;;
10381;SDS011;11635;53.636;10.120;2022-10-28T03:02:57;6.45;;;4.32;;
10381;SDS011;11635;53.636;10.120;2022-10-28T03:05:24;8.05;;;4.72;;
10381;SDS011;11635;53.636;10.120;2022-10-28T03:07:50;6.97;;;3.92;;
10381;SDS011;11635;53.636;10.120;2022-10-28T03:10:16;5.55;;;3.63;;
10381;SDS011;11635;53.636;10.120;2022-10-28T03:12:44;5.97;;;3.70;;
10381;SDS011;11635;53.636;10.120;2022-10-28T03:15:10;8.18;;;3.85;;
10381;SDS011;11635;53.636;10.120;2022-10-28T03:17:37;7.80;;;5.38;;
10381;SDS011;11635;53.636;10.120;2022-10-28T03:20:03;7.95;;;4.63;;
10381;SDS011;11635;53.636;10.120;2022-10-28T03:22:30;5.22;;;4.72;;
10381;SDS011;11635;53.636;10.120;2022-10-28T03:24:56;7.40;;;5.13;;
10381;SDS011;11635;53.636;10.120;2022-10-28T03:27:22;5.93;;;4.18;;
10381;SDS011;11635;53.636;10.120;2022-10-28T03:29:50;6.55;;;4.63;;
10381;SDS011;11635;53.636;10.120;2022-10-28T03:32:16;6.00;;;4.25;;
10381;SDS011;11635;53.636;10.120;2022-10-28T03:34:43;8.23;;;4.50;;
10381;SDS011;11635;53.636;10.120;2022-10-28T03:37:14;10.93;;;4.82;;
10381;SDS011;11635;53.636;10.120;2022-10-28T03:39:40;6.53;;;4.32;;
10381;SDS011;11635;53.636;10.120;2022-10-28T03:42:07;7.70;;;4.88;;
10381;SDS011;11635;53.636;10.120;2022-10-28T03:44:33;6.45;;;4.47;;
10381;SDS011;11635;53.636;10.120;2022-10-28T03:47:01;7.43;;;4.78;;
10381;SDS011;11635;53.636;10.120;2022-10-28T03:49:27;8.70;;;5.10;;
10381;SDS011;11635;53.636;10.120;2022-10-28T03:51:53;6.82;;;4.53;;
10381;SDS011;11635;53.636;10.120;2022-10-28T03:54:19;6.47;;;4.68;;
10381;SDS011;11635;53.636;10.120;2022-10-28T03:56:46;8.70;;;5.05;;
10381;SDS011;11635;53.636;10.120;2022-10-28T03:59:12;14.40;;;9.15;;
10381;SDS011;11635;53.636;10.120;2022-10-28T04:01:38;9.30;;;6.55;;
10381;SDS011;11635;53.636;10.120;2022-10-28T04:04:06;9.52;;;6.03;;
10381;SDS011;11635;53.636;10.120;2022-10-28T04:06:32;9.13;;;4.97;;
10381;SDS011;11635;53.636;10.120;2022-10-28T04:08:59;8.38;;;4.80;;
10381;SDS011;11635;53.636;10.120;2022-10-28T04:11:25;6.03;;;4.68;;
10381;SDS011;11635;53.636;10.120;2022-10-28T04:13:51;8.27;;;5.30;;
10381;SDS011;11635;53.636;10.120;2022-10-28T04:16:18;9.73;;;5.82;;
10381;SDS011;11635;53.636;10.120;2022-10-28T04:18:44;5.82;;;4.63;;
10381;SDS011;11635;53.636;10.120;2022-10-28T04:21:12;6.60;;;4.55;;
10381;SDS011;11635;53.636;10.120;2022-10-28T04:23:38;9.65;;;5.10;;
10381;SDS011;11635;53.636;10.120;2022-10-28T04:26:04;8.52;;;4.90;;
10381;SDS011;11635;53.636;10.120;2022-10-28T04:28:31;6.80;;;4.78;;
10381;SDS011;11635;53.636;10.120;2022-10-28T04:30:57;10.48;;;4.85;;
10381;SDS011;11635;53.636;10.120;2022-10-28T04:33:23;12.00;;;5.00;;
10381;SDS011;11635;53.636;10.120;2022-10-28T04:35:50;9.10;;;5.10;;
10381;SDS011;11635;53.636;10.120;2022-10-28T04:38:18;8.43;;;5.22;;
10381;SDS011;11635;53.636;10.120;2022-10-28T04:40:45;9.07;;;5.25;;
10381;SDS011;11635;53.636;10.120;2022-10-28T04:43:12;7.95;;;5.10;;
10381;SDS011;11635;53.636;10.120;2022-10-28T04:45:38;7.32;;;4.85;;
10381;SDS011;11635;53.636;10.120;2022-10-28T04:48:04;9.30;;;4.90;;
10381;SDS011;11635;53.636;10.120;2022-10-28T04:50:31;9.07;;;4.75;;
10381;SDS011;11635;53.636;10.120;2022-10-28T04:52:57;8.48;;;5.38;;
10381;SDS011;11635;53.636;10.120;2022-10-28T04:55:25;8.98;;;4.93;;
10381;SDS011;11635;53.636;10.120;2022-10-28T04:57:54;11.43;;;5.03;;
10381;SDS011;11635;53.636;10.120;2022-10-28T05:00:20;6.43;;;5.20;;
10381;SDS011;11635;53.636;10.120;2022-10-28T05:02:47;7.85;;;4.93;;
10381;SDS011;11635;53.636;10.120;2022-10-28T05:05:13;7.57;;;4.97;;
10381;SDS011;11635;53.636;10.120;2022-10-28T05:07:40;7.43;;;5.55;;
10381;SDS011;11635;53.636;10.120;2022-10-28T05:10:06;8.70;;;5.22;;
10381;SDS011;11635;53.636;10.120;2022-10-28T05:12:34;6.35;;;4.85;;
10381;SDS011;11635;53.636;10.120;2022-10-28T05:15:00;10.23;;;4.82;;
10381;SDS011;11635;53.636;10.120;2022-10-28T05:17:27;8.77;;;5.22;;
10381;SDS011;11635;53.636;10.120;2022-10-28T05:19:53;9.77;;;5.82;;
10381;SDS011;11635;53.636;10.120;2022-10-28T05:22:19;8.63;;;4.80;;
10381;SDS011;11635;53.636;10.120;2022-10-28T05:24:46;9.68;;;4.95;;
10381;SDS011;11635;53.636;10.120;2022-10-28T05:27:12;8.20;;;5.50;;
10381;SDS011;11635;53.636;10.120;2022-10-28T05:29:39;7.15;;;4.93;;
10381;SDS011;11635;53.636;10.120;2022-10-28T05:32:06;5.93;;;5.05;;
10381;SDS011;11635;53.636;10.120;2022-10-28T05:34:32;9.70;;;5.35;;
10381;SDS011;11635;53.636;10.120;2022-10-28T05:36:58;12.25;;;5.28;;
10381;SDS011;11635;53.636;10.120;2022-10-28T05:39:25;7.53;;;4.78;;
10381;SDS011;11635;53.636;10.120;2022-10-28T05:41:51;6.22;;;5.13;;
10381;SDS011;11635;53.636;10.120;2022-10-28T05:44:17;6.20;;;4.88;;
10381;SDS011;11635;53.636;10.120;2022-10-28T05:46:45;7.30;;;4.63;;
10381;SDS011;11635;53.636;10.120;2022-10-28T05:49:11;7.38;;;5.05;;
10381;SDS011;11635;53.636;10.120;2022-10-28T05:51:38;10.30;;;5.10;;
10381;SDS011;11635;53.636;10.120;2022-10-28T05:54:04;8.02;;;5.55;;
10381;SDS011;11635;53.636;10.120;2022-10-28T05:56:30;6.70;;;4.78;;
10381;SDS011;11635;53.636;10.120;2022-10-28T05:58:57;10.70;;;5.47;;
10381;SDS011;11635;53.636;10.120;2022-10-28T06:01:23;7.50;;;5.18;;
10381;SDS011;11635;53.636;10.120;2022-10-28T06:03:51;8.90;;;5.32;;
10381;SDS011;11635;53.636;10.120;2022-10-28T06:06:17;7.20;;;5.38;;
10381;SDS011;11635;53.636;10.120;2022-10-28T06:08:43;7.82;;;5.05;;
10381;SDS011;11635;53.636;10.120;2022-10-28T06:11:09;6.97;;;5.32;;
10381;SDS011;11635;53.636;10.120;2022-10-28T06:13:36;8.77;;;4.95;;
10381;SDS011;11635;53.636;10.120;2022-10-28T06:16:02;8.23;;;5.82;;
10381;SDS011;11635;53.636;10.120;2022-10-28T06:18:29;10.23;;;5.40;;
10381;SDS011;11635;53.636;10.120;2022-10-28T06:20:57;7.18;;;5.50;;
10381;SDS011;11635;53.636;10.120;2022-10-28T06:23:24;10.05;;;5.50;;
10381;SDS011;11635;53.636;10.120;2022-10-28T06:25:50;9.80;;;5.85;;
10381;SDS011;11635;53.636;10.120;2022-10-28T06:28:21;9.02;;;5.63;;
10381;SDS011;11635;53.636;10.120;2022-10-28T06:30:47;14.05;;;6.32;;
10381;SDS011;11635;53.636;10.120;2022-10-28T06:33:13;9.25;;;5.90;;
10381;SDS011;11635;53.636;10.120;2022-10-28T06:35:39;9.90;;;5.53;;
10381;SDS011;11635;53.636;10.120;2022-10-28T06:38:07;10.52;;;5.93;;
10381;SDS011;11635;53.636;10.120;2022-10-28T06:40:33;13.57;;;6.50;;
10381;SDS011;11635;53.636;10.120;2022-10-28T06:43:00;11.90;;;6.18;;
10381;SDS011;11635;53.636;10.120;2022-10-28T06:45:27;9.63;;;5.78;;
10381;SDS011;11635;53.636;10.120;2022-10-28T06:47:54;8.73;;;5.82;;
10381;SDS011;11635;53.636;10.120;2022-10-28T06:50:20;8.57;;;5.88;;
10381;SDS011;11635;53.636;10.120;2022-10-28T06:52:47;8.82;;;6.25;;
10381;SDS011;11635;53.636;10.120;2022-10-28T06:55:15;11.15;;;6.28;;
10381;SDS011;11635;53.636;10.120;2022-10-28T06:57:41;9.30;;;5.57;;
10381;SDS011;11635;53.636;10.120;2022-10-28T07:00:08;12.23;;;6.78;;
10381;SDS011;11635;53.636;10.120;2022-10-28T07:02:34;8.70;;;6.30;;
10381;SDS011;11635;53.636;10.120;2022-10-28T07:05:01;10.13;;;6.05;;
10381;SDS011;11635;53.636;10.120;2022-10-28T07:07:27;7.65;;;5.35;;
10381;SDS011;11635;53.636;10.120;2022-10-28T07:09:53;8.50;;;5.63;;
10381;SDS011;11635;53.636;10.120;2022-10-28T07:12:21;9.73;;;6.40;;
10381;SDS011;11635;53.636;10.120;2022-10-28T07:14:47;11.93;;;6.57;;
10381;SDS011;11635;53.636;10.120;2022-10-28T07:17:14;9.73;;;6.35;;
10381;SDS011;11635;53.636;10.120;2022-10-28T07:19:40;10.30;;;6.85;;
10381;SDS011;11635;53.636;10.120;2022-10-28T07:22:06;9.30;;;6.20;;
10381;SDS011;11635;53.636;10.120;2022-10-28T07:24:32;9.55;;;6.70;;
10381;SDS011;11635;53.636;10.120;2022-10-28T07:26:59;10.57;;;6.75;;
10381;SDS011;11635;53.636;10.120;2022-10-28T07:29:26;9.98;;;7.13;;
10381;SDS011;11635;53.636;10.120;2022-10-28T07:31:53;11.57;;;6.43;;
10381;SDS011;11635;53.636;10.120;2022-10-28T07:34:19;8.80;;;6.32;;
10381;SDS011;11635;53.636;10.120;2022-10-28T07:36:47;10.50;;;6.45;;
10381;SDS011;11635;53.636;10.120;2022-10-28T07:39:14;11.20;;;6.22;;
10381;SDS011;11635;53.636;10.120;2022-10-28T07:41:40;8.63;;;6.15;;
10381;SDS011;11635;53.636;10.120;2022-10-28T07:44:07;15.10;;;7.10;;
10381;SDS011;11635;53.636;10.120;2022-10-28T07:46:36;12.93;;;6.20;;
10381;SDS011;11635;53.636;10.120;2022-10-28T07:49:06;8.25;;;6.05;;
10381;SDS011;11635;53.636;10.120;2022-10-28T07:51:32;8.48;;;5.93;;
10381;SDS011;11635;53.636;10.120;2022-10-28T07:53:59;10.65;;;5.95;;
10381;SDS011;11635;53.636;10.120;2022-10-28T07:56:25;7.10;;;5.78;;
10381;SDS011;11635;53.636;10.120;2022-10-28T07:58:51;10.73;;;6.32;;
10381;SDS011;11635;53.636;10.120;2022-10-28T08:01:18;10.13;;;6.63;;
10381;SDS011;11635;53.636;10.120;2022-10-28T08:03:47;7.30;;;5.65;;
10381;SDS011;11635;53.636;10.120;2022-10-28T08:06:14;9.82;;;6.00;;
10381;SDS011;11635;53.636;10.120;2022-10-28T08:08:41;11.00;;;6.00;;
10381;SDS011;11635;53.636;10.120;2022-10-28T08:11:08;11.85;;;5.70;;
10381;SDS011;11635;53.636;10.120;2022-10-28T08:13:35;14.68;;;5.60;;
10381;SDS011;11635;53.636;10.120;2022-10-28T08:16:01;9.27;;;5.43;;
10381;SDS011;11635;53.636;10.120;2022-10-28T08:18:27;12.77;;;6.05;;
10381;SDS011;11635;53.636;10.120;2022-10-28T08:20:57;6.95;;;5.78;;
10381;SDS011;11635;53.636;10.120;2022-10-28T08:23:23;10.73;;;6.15;;
10381;SDS011;11635;53.636;10.120;2022-10-28T08:25:50;8.10;;;4.70;;
10381;SDS011;11635;53.636;10.120;2022-10-28T08:28:17;9.55;;;5.28;;
10381;SDS011;11635;53.636;10.120;2022-10-28T08:30:43;11.65;;;5.70;;
10381;SDS011;11635;53.636;10.120;2022-10-28T08:33:10;9.50;;;4.80;;
10381;SDS011;11635;53.636;10.120;2022-10-28T08:35:36;8.70;;;5.00;;
10381;SDS011;11635;53.636;10.120;2022-10-28T08:38:04;8.57;;;4.68;;
10381;SDS011;11635;53.636;10.120;2022-10-28T08:40:31;14.25;;;4.78;;
10381;SDS011;11635;53.636;10.120;2022-10-28T08:43:01;10.57;;;4.97;;
10381;SDS011;11635;53.636;10.120;2022-10-28T08:45:33;10.38;;;5.07;;
10381;SDS011;11635;53.636;10.120;2022-10-28T08:48:07;11.95;;;5.13;;
10381;SDS011;11635;53.636;10.120;2022-10-28T08:50:36;9.30;;;4.32;;
10381;SDS011;11635;53.636;10.120;2022-10-28T08:53:09;8.02;;;4.40;;
10381;SDS011;11635;53.636;10.120;2022-10-28T08:55:38;8.27;;;4.22;;
10381;SDS011;11635;53.636;10.120;2022-10-28T08:58:06;9.30;;;4.00;;
10381;SDS011;11635;53.636;10.120;2022-10-28T09:00:33;16.17;;;4.03;;
10381;SDS011;11635;53.636;10.120;2022-10-28T09:03:05;11.82;;;4.13;;
10381;SDS011;11635;53.636;10.120;2022-10-28T09:05:34;7.75;;;3.80;;
10381;SDS011;11635;53.636;10.120;2022-10-28T09:08:00;9.27;;;4.30;;
10381;SDS011;11635;53.636;10.120;2022-10-28T09:13:11;7.80;;;3.78;;
10381;SDS011;11635;53.636;10.120;2022-10-28T09:15:43;11.82;;;4.40;;
10381;SDS011;11635;53.636;10.120;2022-10-28T09:18:14;8.88;;;3.78;;
10381;SDS011;11635;53.636;10.120;2022-10-28T09:20:45;9.00;;;3.85;;
10381;SDS011;11635;53.636;10.120;2022-10-28T09:23:15;7.82;;;3.45;;
10381;SDS011;11635;53.636;10.120;2022-10-28T09:25:48;6.10;;;3.40;;
10381;SDS011;11635;53.636;10.120;2022-10-28T09:28:22;6.75;;;3.67;;
10381;SDS011;11635;53.636;10.120;2022-10-28T09:30:53;10.35;;;3.67;;
10381;SDS011;11635;53.636;10.120;2022-10-28T09:36:07;7.07;;;3.38;;
10381;SDS011;11635;53.636;10.120;2022-10-28T09:38:35;7.70;;;3.95;;
10381;SDS011;11635;53.636;10.120;2022-10-28T09:41:03;7.20;;;3.47;;
10381;SDS011;11635;53.636;10.120;2022-10-28T09:43:32;7.63;;;3.45;;
10381;SDS011;11635;53.636;10.120;2022-10-28T09:46:00;7.85;;;3.28;;
10381;SDS011;11635;53.636;10.120;2022-10-28T09:48:27;8.02;;;3.63;;
10381;SDS011;11635;53.636;10.120;2022-10-28T09:50:54;5.82;;;3.28;;
10381;SDS011;11635;53.636;10.120;2022-10-28T09:53:25;9.32;;;3.67;;
10381;SDS011;11635;53.636;10.120;2022-10-28T09:55:54;7.15;;;3.50;;
10381;SDS011;11635;53.636;10.120;2022-10-28T09:58:21;5.45;;;3.38;;
10381;SDS011;11635;53.636;10.120;2022-10-28T10:00:49;7.03;;;3.30;;
10381;SDS011;11635;53.636;10.120;2022-10-28T10:03:16;8.18;;;3.90;;
10381;SDS011;11635;53.636;10.120;2022-10-28T10:05:43;14.63;;;4.53;;
10381;SDS011;11635;53.636;10.120;2022-10-28T10:08:13;10.10;;;4.03;;
10381;SDS011;11635;53.636;10.120;2022-10-28T10:10:46;8.57;;;3.85;;
10381;SDS011;11635;53.636;10.120;2022-10-28T10:13:13;11.18;;;3.78;;
10381;SDS011;11635;53.636;10.120;2022-10-28T10:15:41;7.80;;;2.88;;
10381;SDS011;11635;53.636;10.120;2022-10-28T10:18:10;8.40;;;3.72;;
10381;SDS011;11635;53.636;10.120;2022-10-28T10:20:44;6.75;;;3.22;;
10381;SDS011;11635;53.636;10.120;2022-10-28T10:23:20;8.82;;;3.60;;
10381;SDS011;11635;53.636;10.120;2022-10-28T10:25:48;9.68;;;3.15;;
10381;SDS011;11635;53.636;10.120;2022-10-28T10:28:18;9.57;;;3.50;;
10381;SDS011;11635;53.636;10.120;2022-10-28T10:30:48;9.65;;;3.15;;
10381;SDS011;11635;53.636;10.120;2022-10-28T10:33:17;8.55;;;3.55;;
10381;SDS011;11635;53.636;10.120;2022-10-28T10:35:51;5.40;;;2.88;;
10381;SDS011;11635;53.636;10.120;2022-10-28T10:38:17;9.50;;;4.00;;
10381;SDS011;11635;53.636;10.120;2022-10-28T10:40:46;9.18;;;3.58;;
10381;SDS011;11635;53.636;10.120;2022-10-28T10:43:20;7.65;;;3.70;;
10381;SDS011;11635;53.636;10.120;2022-10-28T10:45:51;6.13;;;2.97;;
10381;SDS011;11635;53.636;10.120;2022-10-28T10:48:19;7.95;;;3.45;;
10381;SDS011;11635;53.636;10.120;2022-10-28T10:50:46;12.20;;;3.08;;
10381;SDS011;11635;53.636;10.120;2022-10-28T10:53:17;10.95;;;3.92;;
10381;SDS011;11635;53.636;10.120;2022-10-28T10:55:47;13.05;;;3.80;;
10381;SDS011;11635;53.636;10.120;2022-10-28T10:58:14;10.52;;;2.88;;
10381;SDS011;11635;53.636;10.120;2022-10-28T11:00:44;4.97;;;3.08;;
10381;SDS011;11635;53.636;10.120;2022-10-28T11:03:12;7.40;;;3.40;;
10381;SDS011;11635;53.636;10.120;2022-10-28T11:05:47;8.05;;;3.60;;
10381;SDS011;11635;53.636;10.120;2022-10-28T11:08:25;6.85;;;3.28;;
10381;SDS011;11635;53.636;10.120;2022-10-28T11:11:01;9.23;;;3.17;;
10381;SDS011;11635;53.636;10.120;2022-10-28T11:13:28;8.90;;;3.40;;
10381;SDS011;11635;53.636;10.120;2022-10-28T11:15:58;6.38;;;3.20;;
10381;SDS011;11635;53.636;10.120;2022-10-28T11:18:24;10.30;;;3.72;;
10381;SDS011;11635;53.636;10.120;2022-10-28T11:20:56;7.00;;;3.33;;
10381;SDS011;11635;53.636;10.120;2022-10-28T11:23:27;6.20;;;3.17;;
10381;SDS011;11635;53.636;10.120;2022-10-28T11:26:00;9.38;;;4.03;;
10381;SDS011;11635;53.636;10.120;2022-10-28T11:28:35;12.07;;;3.45;;
10381;SDS011;11635;53.636;10.120;2022-10-28T11:31:09;6.90;;;2.95;;
10381;SDS011;11635;53.636;10.120;2022-10-28T11:33:39;7.53;;;3.50;;
10381;SDS011;11635;53.636;10.120;2022-10-28T11:36:12;9.77;;;3.47;;
10381;SDS011;11635;53.636;10.120;2022-10-28T11:38:47;12.45;;;3.78;;
10381;SDS011;11635;53.636;10.120;2022-10-28T11:41:18;6.47;;;3.22;;
10381;SDS011;11635;53.636;10.120;2022-10-28T11:43:47;10.25;;;3.42;;
10381;SDS011;11635;53.636;10.120;2022-10-28T11:46:16;8.88;;;3.08;;
10381;SDS011;11635;53.636;10.120;2022-10-28T11:48:48;8.30;;;3.35;;
10381;SDS011;11635;53.636;10.120;2022-10-28T11:51:25;9.85;;;3.50;;
10381;SDS011;11635;53.636;10.120;2022-10-28T11:53:59;11.25;;;3.13;;
10381;SDS011;11635;53.636;10.120;2022-10-28T11:56:33;9.55;;;3.47;;
10381;SDS011;11635;53.636;10.120;2022-10-28T11:59:03;5.40;;;2.50;;
